עמוד ראשי
METAR-TAF:

METAR-TAF

שדות תעופה :

Takamatsu, יפן

קו רוחב: 34-13N, קו אורך: 134-01E, גובה: 185מטר

תצפית מזג אוויר נוכחית

הדו"ח נערך לפני 7 שעות ו 53דקות, בשעה 12:00 UTC
רוח 6קשר מכיוון דרום-מזרח
טמפרטורת 26 צלסיוס
לחות 84%
לחץ 1014 hPa
ראות 10 קילומטר או יותר
מעט עננים בגובה 2000רגל
עננים פזורים בגובה 5000רגל
עננים בינוניים

METAR: RJOT 171200Z 14006KT 9999 FEW020 SCT050 BKN/// 26/23 Q1014

זמן: 04:53 (19:53 UTC)

תחזית

הדו"ח נערך לפני 2 שעות ו 47דקות, בשעה 17:06 UTC
תחזית בתוקף מ 17 ב 18 UTC עד 19 ב 00 UTC
רוח 4קשר מכיוון דרום/דרום-מזרח
ראות 10 קילומטר או יותר
מעט עננים בגובה 2500רגל
זמנית מ -
18 ב 06 UTC עד 18 ב 09 UTC
מעט עננים בגובה 800רגל
עננים פזורים בגובה 1500רגל
מעט עננים בגובה 2500רגל , קומולונימבוס.
עננים בינוניים בגובה 3000רגל
סופת רעמים, גשם קל
יעשה מ
18 ב 15 UTC עד 18 ב 18 UTC
רוח 6קשר מכיוון מערב/דרום-מערב

TAF: RJOT 171706Z 1718/1900 15004KT 9999 FEW025 TEMPO 1806/1809 -TSRA FEW008 SCT015 FEW025CB BKN030 BECMG 1815/1818 24006KT

תצפיות ותחזיות מזג אוויר לגבי יותר מ- 4,000 שדות תעופה ברחבי העולם. דוחות METAR ו- TAF.

התחנות הזמינות מסומנות בנקודות צהובות ואדומות על גבי המפה.

העבר את העכבר לנקודה הצבעונית על מנת לראות את שם התחנה.

לאחר מכן, לחץ כדי לראות את תוכן ואת תחזיות מזג האוויר.

כדי לשנות את המפה: לחץ על הכפתורים הירוקים עם הפלוס השחור כדי להתקרב; על הכפתור הירוק עם המקף כדי להתרחק; או בחיצים הירוקים למפות סמוכות.


METAR-TAF: